sensor_id;sensor_type;location;lat;lon;timestamp;P1;durP1;ratioP1;P2;durP2;ratioP2
20114;SDS011;10218;42.874;25.320;2023-02-28T00:00:36;37.07;;;23.40;;
20114;SDS011;10218;42.874;25.320;2023-02-28T00:03:04;36.50;;;21.43;;
20114;SDS011;10218;42.874;25.320;2023-02-28T00:05:31;37.70;;;22.90;;
20114;SDS011;10218;42.874;25.320;2023-02-28T00:07:59;34.03;;;22.00;;
20114;SDS011;10218;42.874;25.320;2023-02-28T00:10:27;32.00;;;21.40;;
20114;SDS011;10218;42.874;25.320;2023-02-28T00:12:59;37.43;;;22.20;;
20114;SDS011;10218;42.874;25.320;2023-02-28T00:15:28;32.10;;;21.23;;
20114;SDS011;10218;42.874;25.320;2023-02-28T00:17:55;28.97;;;20.60;;
20114;SDS011;10218;42.874;25.320;2023-02-28T00:20:22;34.00;;;21.40;;
20114;SDS011;10218;42.874;25.320;2023-02-28T00:22:50;30.63;;;20.80;;
20114;SDS011;10218;42.874;25.320;2023-02-28T00:25:19;33.07;;;20.17;;
20114;SDS011;10218;42.874;25.320;2023-02-28T00:27:50;30.57;;;20.07;;
20114;SDS011;10218;42.874;25.320;2023-02-28T00:30:18;31.07;;;20.80;;
20114;SDS011;10218;42.874;25.320;2023-02-28T00:32:46;33.60;;;20.53;;
20114;SDS011;10218;42.874;25.320;2023-02-28T00:35:14;33.13;;;21.33;;
20114;SDS011;10218;42.874;25.320;2023-02-28T00:37:41;108.17;;;51.83;;
20114;SDS011;10218;42.874;25.320;2023-02-28T00:40:09;48.70;;;28.40;;
20114;SDS011;10218;42.874;25.320;2023-02-28T00:42:38;30.93;;;20.80;;
20114;SDS011;10218;42.874;25.320;2023-02-28T00:45:06;34.73;;;22.50;;
20114;SDS011;10218;42.874;25.320;2023-02-28T00:47:36;37.50;;;23.43;;
20114;SDS011;10218;42.874;25.320;2023-02-28T00:50:04;33.43;;;22.07;;
20114;SDS011;10218;42.874;25.320;2023-02-28T00:52:31;33.67;;;22.57;;
20114;SDS011;10218;42.874;25.320;2023-02-28T00:54:58;31.30;;;22.27;;
20114;SDS011;10218;42.874;25.320;2023-02-28T00:57:26;31.83;;;22.00;;
20114;SDS011;10218;42.874;25.320;2023-02-28T00:59:53;32.80;;;21.90;;
20114;SDS011;10218;42.874;25.320;2023-02-28T01:02:22;33.10;;;20.90;;
20114;SDS011;10218;42.874;25.320;2023-02-28T01:04:51;33.33;;;22.03;;
20114;SDS011;10218;42.874;25.320;2023-02-28T01:07:18;30.20;;;20.47;;
20114;SDS011;10218;42.874;25.320;2023-02-28T01:09:45;31.97;;;20.73;;
20114;SDS011;10218;42.874;25.320;2023-02-28T01:12:13;30.67;;;21.23;;
20114;SDS011;10218;42.874;25.320;2023-02-28T01:14:40;31.63;;;19.67;;
20114;SDS011;10218;42.874;25.320;2023-02-28T01:17:07;28.53;;;19.97;;
20114;SDS011;10218;42.874;25.320;2023-02-28T01:19:35;31.53;;;21.00;;
20114;SDS011;10218;42.874;25.320;2023-02-28T01:22:04;30.47;;;20.37;;
20114;SDS011;10218;42.874;25.320;2023-02-28T01:24:33;39.83;;;22.47;;
20114;SDS011;10218;42.874;25.320;2023-02-28T01:27:00;30.27;;;19.83;;
20114;SDS011;10218;42.874;25.320;2023-02-28T01:29:27;31.13;;;20.40;;
20114;SDS011;10218;42.874;25.320;2023-02-28T01:31:54;30.20;;;20.13;;
20114;SDS011;10218;42.874;25.320;2023-02-28T01:34:22;33.60;;;20.93;;
20114;SDS011;10218;42.874;25.320;2023-02-28T01:36:50;32.80;;;21.47;;
20114;SDS011;10218;42.874;25.320;2023-02-28T01:39:17;30.33;;;20.20;;
20114;SDS011;10218;42.874;25.320;2023-02-28T01:41:45;34.33;;;20.83;;
20114;SDS011;10218;42.874;25.320;2023-02-28T01:47:16;30.77;;;20.13;;
20114;SDS011;10218;42.874;25.320;2023-02-28T01:49:43;31.57;;;20.80;;
20114;SDS011;10218;42.874;25.320;2023-02-28T01:52:11;31.90;;;21.37;;
20114;SDS011;10218;42.874;25.320;2023-02-28T01:54:46;40.17;;;21.90;;
20114;SDS011;10218;42.874;25.320;2023-02-28T01:57:19;34.50;;;22.40;;
20114;SDS011;10218;42.874;25.320;2023-02-28T01:59:57;35.40;;;22.10;;
20114;SDS011;10218;42.874;25.320;2023-02-28T02:02:38;34.50;;;21.73;;
20114;SDS011;10218;42.874;25.320;2023-02-28T02:05:08;33.73;;;21.03;;
20114;SDS011;10218;42.874;25.320;2023-02-28T02:07:40;42.73;;;23.33;;
20114;SDS011;10218;42.874;25.320;2023-02-28T02:15:57;41.43;;;22.87;;
20114;SDS011;10218;42.874;25.320;2023-02-28T02:21:45;39.40;;;23.30;;
20114;SDS011;10218;42.874;25.320;2023-02-28T02:27:25;38.77;;;23.23;;
20114;SDS011;10218;42.874;25.320;2023-02-28T02:30:10;41.57;;;24.43;;
20114;SDS011;10218;42.874;25.320;2023-02-28T02:39:16;39.77;;;24.30;;
20114;SDS011;10218;42.874;25.320;2023-02-28T02:46:51;41.40;;;23.77;;
20114;SDS011;10218;42.874;25.320;2023-02-28T02:49:28;37.17;;;22.87;;
20114;SDS011;10218;42.874;25.320;2023-02-28T02:52:03;40.20;;;24.00;;
20114;SDS011;10218;42.874;25.320;2023-02-28T02:54:34;37.97;;;22.13;;
20114;SDS011;10218;42.874;25.320;2023-02-28T02:57:05;36.50;;;22.57;;
20114;SDS011;10218;42.874;25.320;2023-02-28T02:59:38;40.30;;;22.83;;
20114;SDS011;10218;42.874;25.320;2023-02-28T03:02:08;36.70;;;21.30;;
20114;SDS011;10218;42.874;25.320;2023-02-28T03:04:43;34.73;;;20.93;;
20114;SDS011;10218;42.874;25.320;2023-02-28T03:07:15;31.03;;;20.47;;
20114;SDS011;10218;42.874;25.320;2023-02-28T03:09:50;31.00;;;20.73;;
20114;SDS011;10218;42.874;25.320;2023-02-28T03:12:20;34.03;;;20.93;;
20114;SDS011;10218;42.874;25.320;2023-02-28T03:15:38;36.53;;;21.00;;
20114;SDS011;10218;42.874;25.320;2023-02-28T03:18:01;35.10;;;21.50;;
20114;SDS011;10218;42.874;25.320;2023-02-28T03:21:14;37.30;;;21.73;;
20114;SDS011;10218;42.874;25.320;2023-02-28T03:26:42;37.13;;;22.60;;
20114;SDS011;10218;42.874;25.320;2023-02-28T03:29:36;38.07;;;21.53;;
20114;SDS011;10218;42.874;25.320;2023-02-28T03:32:33;39.97;;;21.97;;
20114;SDS011;10218;42.874;25.320;2023-02-28T03:35:16;36.47;;;22.27;;
20114;SDS011;10218;42.874;25.320;2023-02-28T03:37:53;37.47;;;22.00;;
20114;SDS011;10218;42.874;25.320;2023-02-28T03:40:27;44.20;;;23.43;;
20114;SDS011;10218;42.874;25.320;2023-02-28T03:43:01;34.50;;;22.07;;
20114;SDS011;10218;42.874;25.320;2023-02-28T03:45:32;41.27;;;22.80;;
20114;SDS011;10218;42.874;25.320;2023-02-28T03:50:47;41.00;;;22.17;;
20114;SDS011;10218;42.874;25.320;2023-02-28T03:55:47;38.67;;;23.27;;
20114;SDS011;10218;42.874;25.320;2023-02-28T04:00:45;40.90;;;24.33;;
20114;SDS011;10218;42.874;25.320;2023-02-28T04:03:16;44.97;;;24.87;;
20114;SDS011;10218;42.874;25.320;2023-02-28T04:05:46;40.93;;;24.07;;
20114;SDS011;10218;42.874;25.320;2023-02-28T04:08:16;45.33;;;25.20;;
20114;SDS011;10218;42.874;25.320;2023-02-28T04:10:43;46.27;;;25.47;;
20114;SDS011;10218;42.874;25.320;2023-02-28T04:13:16;48.30;;;27.63;;
20114;SDS011;10218;42.874;25.320;2023-02-28T04:15:43;48.87;;;27.10;;
20114;SDS011;10218;42.874;25.320;2023-02-28T04:18:10;48.53;;;25.47;;
20114;SDS011;10218;42.874;25.320;2023-02-28T04:20:37;44.27;;;24.73;;
20114;SDS011;10218;42.874;25.320;2023-02-28T04:23:04;45.27;;;25.03;;
20114;SDS011;10218;42.874;25.320;2023-02-28T04:25:31;42.30;;;24.20;;
20114;SDS011;10218;42.874;25.320;2023-02-28T04:27:58;42.63;;;23.93;;
20114;SDS011;10218;42.874;25.320;2023-02-28T04:30:25;39.77;;;23.43;;
20114;SDS011;10218;42.874;25.320;2023-02-28T04:32:52;43.10;;;23.33;;
20114;SDS011;10218;42.874;25.320;2023-02-28T04:35:19;39.57;;;23.23;;
20114;SDS011;10218;42.874;25.320;2023-02-28T04:37:46;42.17;;;24.13;;
20114;SDS011;10218;42.874;25.320;2023-02-28T04:40:13;39.83;;;22.57;;
20114;SDS011;10218;42.874;25.320;2023-02-28T04:42:40;45.00;;;24.40;;
20114;SDS011;10218;42.874;25.320;2023-02-28T04:45:08;41.90;;;23.57;;
20114;SDS011;10218;42.874;25.320;2023-02-28T04:47:36;39.97;;;22.37;;
20114;SDS011;10218;42.874;25.320;2023-02-28T04:50:03;40.90;;;22.20;;
20114;SDS011;10218;42.874;25.320;2023-02-28T04:52:31;40.20;;;23.00;;
20114;SDS011;10218;42.874;25.320;2023-02-28T04:54:58;36.93;;;22.50;;
20114;SDS011;10218;42.874;25.320;2023-02-28T04:57:25;38.60;;;23.27;;
20114;SDS011;10218;42.874;25.320;2023-02-28T04:59:52;40.37;;;24.00;;
20114;SDS011;10218;42.874;25.320;2023-02-28T05:02:19;43.27;;;25.13;;
20114;SDS011;10218;42.874;25.320;2023-02-28T05:04:47;42.60;;;24.83;;
20114;SDS011;10218;42.874;25.320;2023-02-28T05:07:14;45.37;;;24.93;;
20114;SDS011;10218;42.874;25.320;2023-02-28T05:09:41;43.03;;;25.67;;
20114;SDS011;10218;42.874;25.320;2023-02-28T05:12:08;44.20;;;25.77;;
20114;SDS011;10218;42.874;25.320;2023-02-28T05:14:36;41.77;;;24.63;;
20114;SDS011;10218;42.874;25.320;2023-02-28T05:17:03;44.30;;;28.13;;
20114;SDS011;10218;42.874;25.320;2023-02-28T05:19:30;47.20;;;26.47;;
20114;SDS011;10218;42.874;25.320;2023-02-28T05:21:57;44.37;;;25.83;;
20114;SDS011;10218;42.874;25.320;2023-02-28T05:24:24;46.10;;;25.40;;
20114;SDS011;10218;42.874;25.320;2023-02-28T05:26:52;42.47;;;24.60;;
20114;SDS011;10218;42.874;25.320;2023-02-28T05:29:20;48.43;;;26.33;;
20114;SDS011;10218;42.874;25.320;2023-02-28T05:31:47;45.83;;;26.00;;
20114;SDS011;10218;42.874;25.320;2023-02-28T05:34:15;44.50;;;25.60;;
20114;SDS011;10218;42.874;25.320;2023-02-28T05:36:42;45.77;;;25.70;;
20114;SDS011;10218;42.874;25.320;2023-02-28T05:39:09;42.20;;;25.37;;
20114;SDS011;10218;42.874;25.320;2023-02-28T05:41:40;45.37;;;27.43;;
20114;SDS011;10218;42.874;25.320;2023-02-28T05:44:09;47.03;;;25.80;;
20114;SDS011;10218;42.874;25.320;2023-02-28T05:46:36;41.43;;;25.37;;
20114;SDS011;10218;42.874;25.320;2023-02-28T05:49:03;39.27;;;24.20;;
20114;SDS011;10218;42.874;25.320;2023-02-28T05:51:31;41.57;;;24.93;;
20114;SDS011;10218;42.874;25.320;2023-02-28T05:53:59;39.40;;;23.43;;
20114;SDS011;10218;42.874;25.320;2023-02-28T05:56:26;42.67;;;25.87;;
20114;SDS011;10218;42.874;25.320;2023-02-28T05:58:54;40.53;;;24.20;;
20114;SDS011;10218;42.874;25.320;2023-02-28T06:03:51;40.73;;;25.23;;
20114;SDS011;10218;42.874;25.320;2023-02-28T06:06:18;44.37;;;24.10;;
20114;SDS011;10218;42.874;25.320;2023-02-28T06:08:45;38.10;;;23.20;;
20114;SDS011;10218;42.874;25.320;2023-02-28T06:11:13;38.73;;;23.13;;
20114;SDS011;10218;42.874;25.320;2023-02-28T06:13:40;45.77;;;24.70;;
20114;SDS011;10218;42.874;25.320;2023-02-28T06:16:08;42.23;;;25.53;;
20114;SDS011;10218;42.874;25.320;2023-02-28T06:18:38;51.17;;;31.37;;
20114;SDS011;10218;42.874;25.320;2023-02-28T06:21:05;52.17;;;29.23;;
20114;SDS011;10218;42.874;25.320;2023-02-28T06:23:32;56.70;;;30.40;;
20114;SDS011;10218;42.874;25.320;2023-02-28T06:25:59;55.30;;;31.37;;
20114;SDS011;10218;42.874;25.320;2023-02-28T06:28:26;53.70;;;30.20;;
20114;SDS011;10218;42.874;25.320;2023-02-28T06:30:53;52.67;;;28.63;;
20114;SDS011;10218;42.874;25.320;2023-02-28T06:33:21;52.93;;;29.07;;
20114;SDS011;10218;42.874;25.320;2023-02-28T06:35:51;49.57;;;28.87;;
20114;SDS011;10218;42.874;25.320;2023-02-28T06:38:18;47.43;;;26.30;;
20114;SDS011;10218;42.874;25.320;2023-02-28T06:40:52;48.67;;;25.47;;
20114;SDS011;10218;42.874;25.320;2023-02-28T06:43:23;43.53;;;24.73;;
20114;SDS011;10218;42.874;25.320;2023-02-28T06:45:54;47.73;;;25.17;;
20114;SDS011;10218;42.874;25.320;2023-02-28T06:48:22;46.10;;;26.60;;
20114;SDS011;10218;42.874;25.320;2023-02-28T06:50:50;46.77;;;25.70;;
20114;SDS011;10218;42.874;25.320;2023-02-28T06:53:17;50.07;;;27.07;;
20114;SDS011;10218;42.874;25.320;2023-02-28T06:55:44;46.10;;;26.37;;
20114;SDS011;10218;42.874;25.320;2023-02-28T06:58:12;49.70;;;27.43;;
20114;SDS011;10218;42.874;25.320;2023-02-28T07:00:42;44.47;;;25.93;;
20114;SDS011;10218;42.874;25.320;2023-02-28T07:03:10;45.23;;;25.50;;
20114;SDS011;10218;42.874;25.320;2023-02-28T07:05:38;43.80;;;25.17;;
20114;SDS011;10218;42.874;25.320;2023-02-28T07:08:06;44.43;;;24.93;;
20114;SDS011;10218;42.874;25.320;2023-02-28T07:10:33;41.97;;;23.90;;
20114;SDS011;10218;42.874;25.320;2023-02-28T07:13:00;41.80;;;25.33;;
20114;SDS011;10218;42.874;25.320;2023-02-28T07:15:27;42.80;;;25.87;;
20114;SDS011;10218;42.874;25.320;2023-02-28T07:17:54;45.43;;;25.37;;
20114;SDS011;10218;42.874;25.320;2023-02-28T07:20:23;47.47;;;25.23;;
20114;SDS011;10218;42.874;25.320;2023-02-28T07:22:50;41.37;;;25.20;;
20114;SDS011;10218;42.874;25.320;2023-02-28T07:25:23;42.20;;;24.77;;
20114;SDS011;10218;42.874;25.320;2023-02-28T07:27:51;44.50;;;24.23;;
20114;SDS011;10218;42.874;25.320;2023-02-28T07:30:18;43.00;;;24.33;;
20114;SDS011;10218;42.874;25.320;2023-02-28T07:32:45;50.53;;;26.13;;
20114;SDS011;10218;42.874;25.320;2023-02-28T07:35:13;44.83;;;26.40;;
20114;SDS011;10218;42.874;25.320;2023-02-28T07:37:41;49.43;;;29.00;;
20114;SDS011;10218;42.874;25.320;2023-02-28T07:40:09;53.00;;;28.37;;
20114;SDS011;10218;42.874;25.320;2023-02-28T07:42:40;57.37;;;28.87;;
20114;SDS011;10218;42.874;25.320;2023-02-28T07:45:08;50.50;;;27.23;;
20114;SDS011;10218;42.874;25.320;2023-02-28T07:47:38;48.80;;;25.83;;
20114;SDS011;10218;42.874;25.320;2023-02-28T07:50:06;48.37;;;27.00;;
20114;SDS011;10218;42.874;25.320;2023-02-28T07:52:35;53.50;;;28.20;;
20114;SDS011;10218;42.874;25.320;2023-02-28T07:55:04;47.17;;;27.13;;
20114;SDS011;10218;42.874;25.320;2023-02-28T07:57:31;42.80;;;25.33;;
20114;SDS011;10218;42.874;25.320;2023-02-28T08:00:05;42.53;;;25.40;;
20114;SDS011;10218;42.874;25.320;2023-02-28T08:02:36;47.80;;;25.60;;
20114;SDS011;10218;42.874;25.320;2023-02-28T08:05:04;48.87;;;29.10;;
20114;SDS011;10218;42.874;25.320;2023-02-28T08:07:32;52.67;;;27.23;;
20114;SDS011;10218;42.874;25.320;2023-02-28T08:09:59;45.03;;;26.17;;
20114;SDS011;10218;42.874;25.320;2023-02-28T08:12:27;46.57;;;27.63;;
20114;SDS011;10218;42.874;25.320;2023-02-28T08:14:54;51.13;;;27.53;;
20114;SDS011;10218;42.874;25.320;2023-02-28T08:17:21;50.93;;;26.67;;
20114;SDS011;10218;42.874;25.320;2023-02-28T08:19:48;48.00;;;26.83;;
20114;SDS011;10218;42.874;25.320;2023-02-28T08:22:15;50.33;;;27.93;;
20114;SDS011;10218;42.874;25.320;2023-02-28T08:24:42;70.43;;;32.27;;
20114;SDS011;10218;42.874;25.320;2023-02-28T08:27:10;70.13;;;33.33;;
20114;SDS011;10218;42.874;25.320;2023-02-28T08:29:37;75.20;;;31.63;;
20114;SDS011;10218;42.874;25.320;2023-02-28T08:32:05;81.40;;;34.10;;
20114;SDS011;10218;42.874;25.320;2023-02-28T08:34:40;87.77;;;32.30;;
20114;SDS011;10218;42.874;25.320;2023-02-28T08:37:07;64.13;;;29.80;;
20114;SDS011;10218;42.874;25.320;2023-02-28T08:39:34;72.43;;;30.57;;
20114;SDS011;10218;42.874;25.320;2023-02-28T08:42:03;77.80;;;31.20;;
20114;SDS011;10218;42.874;25.320;2023-02-28T08:44:33;76.07;;;30.37;;
20114;SDS011;10218;42.874;25.320;2023-02-28T08:47:00;70.90;;;29.63;;
20114;SDS011;10218;42.874;25.320;2023-02-28T08:49:27;49.47;;;23.90;;
20114;SDS011;10218;42.874;25.320;2023-02-28T08:51:55;44.47;;;22.77;;
20114;SDS011;10218;42.874;25.320;2023-02-28T08:54:23;43.77;;;24.20;;
20114;SDS011;10218;42.874;25.320;2023-02-28T08:56:57;43.03;;;22.97;;
20114;SDS011;10218;42.874;25.320;2023-02-28T08:59:24;44.30;;;22.60;;
20114;SDS011;10218;42.874;25.320;2023-02-28T09:01:51;40.17;;;22.23;;
20114;SDS011;10218;42.874;25.320;2023-02-28T09:04:18;41.40;;;21.73;;
20114;SDS011;10218;42.874;25.320;2023-02-28T09:06:45;50.47;;;25.40;;
20114;SDS011;10218;42.874;25.320;2023-02-28T09:09:12;53.10;;;25.03;;
20114;SDS011;10218;42.874;25.320;2023-02-28T09:11:39;51.70;;;26.87;;
20114;SDS011;10218;42.874;25.320;2023-02-28T09:14:06;45.77;;;25.17;;
20114;SDS011;10218;42.874;25.320;2023-02-28T09:16:34;45.20;;;25.40;;
20114;SDS011;10218;42.874;25.320;2023-02-28T09:19:01;48.27;;;25.77;;
20114;SDS011;10218;42.874;25.320;2023-02-28T09:21:28;44.77;;;25.03;;
20114;SDS011;10218;42.874;25.320;2023-02-28T09:23:56;41.40;;;22.67;;
20114;SDS011;10218;42.874;25.320;2023-02-28T09:26:24;43.77;;;22.80;;
20114;SDS011;10218;42.874;25.320;2023-02-28T09:28:54;42.87;;;21.00;;
20114;SDS011;10218;42.874;25.320;2023-02-28T09:31:23;42.57;;;20.90;;
20114;SDS011;10218;42.874;25.320;2023-02-28T09:33:53;45.80;;;20.60;;
20114;SDS011;10218;42.874;25.320;2023-02-28T09:36:23;48.93;;;22.83;;
20114;SDS011;10218;42.874;25.320;2023-02-28T09:39:00;49.23;;;22.50;;
20114;SDS011;10218;42.874;25.320;2023-02-28T09:41:27;44.13;;;22.07;;
20114;SDS011;10218;42.874;25.320;2023-02-28T09:44:06;79.57;;;28.43;;
20114;SDS011;10218;42.874;25.320;2023-02-28T09:46:42;149.53;;;34.00;;
20114;SDS011;10218;42.874;25.320;2023-02-28T09:49:17;118.87;;;29.80;;
20114;SDS011;10218;42.874;25.320;2023-02-28T09:51:58;47.80;;;22.37;;
20114;SDS011;10218;42.874;25.320;2023-02-28T09:54:29;33.67;;;18.43;;
20114;SDS011;10218;42.874;25.320;2023-02-28T09:59:38;33.67;;;17.60;;
20114;SDS011;10218;42.874;25.320;2023-02-28T10:05:28;29.23;;;16.90;;
20114;SDS011;10218;42.874;25.320;2023-02-28T10:08:18;28.53;;;16.43;;
20114;SDS011;10218;42.874;25.320;2023-02-28T10:10:54;29.57;;;17.03;;
20114;SDS011;10218;42.874;25.320;2023-02-28T10:13:32;28.23;;;17.10;;
20114;SDS011;10218;42.874;25.320;2023-02-28T10:16:03;30.60;;;17.97;;
20114;SDS011;10218;42.874;25.320;2023-02-28T10:18:47;35.20;;;17.77;;
20114;SDS011;10218;42.874;25.320;2023-02-28T10:21:23;31.97;;;16.80;;
20114;SDS011;10218;42.874;25.320;2023-02-28T10:24:03;34.80;;;17.80;;
20114;SDS011;10218;42.874;25.320;2023-02-28T10:26:50;31.90;;;18.23;;
20114;SDS011;10218;42.874;25.320;2023-02-28T10:29:23;28.50;;;16.37;;
20114;SDS011;10218;42.874;25.320;2023-02-28T10:31:50;32.83;;;16.83;;
20114;SDS011;10218;42.874;25.320;2023-02-28T10:34:17;30.07;;;16.87;;
20114;SDS011;10218;42.874;25.320;2023-02-28T10:36:44;30.63;;;16.93;;
20114;SDS011;10218;42.874;25.320;2023-02-28T10:42:05;34.10;;;17.33;;
20114;SDS011;10218;42.874;25.320;2023-02-28T10:45:06;32.07;;;16.53;;
20114;SDS011;10218;42.874;25.320;2023-02-28T10:48:01;37.03;;;15.87;;
20114;SDS011;10218;42.874;25.320;2023-02-28T10:54:10;38.53;;;20.00;;
20114;SDS011;10218;42.874;25.320;2023-02-28T10:56:24;33.07;;;17.10;;
20114;SDS011;10218;42.874;25.320;2023-02-28T11:01:24;26.90;;;16.17;;
20114;SDS011;10218;42.874;25.320;2023-02-28T11:04:01;29.97;;;17.43;;
20114;SDS011;10218;42.874;25.320;2023-02-28T11:06:29;30.67;;;16.43;;
20114;SDS011;10218;42.874;25.320;2023-02-28T11:09:06;25.47;;;15.47;;
20114;SDS011;10218;42.874;25.320;2023-02-28T11:11:49;25.67;;;15.30;;
20114;SDS011;10218;42.874;25.320;2023-02-28T11:14:36;25.70;;;14.53;;
20114;SDS011;10218;42.874;25.320;2023-02-28T11:17:17;24.17;;;13.73;;
20114;SDS011;10218;42.874;25.320;2023-02-28T11:19:50;29.33;;;15.53;;
20114;SDS011;10218;42.874;25.320;2023-02-28T11:22:26;31.20;;;17.50;;
20114;SDS011;10218;42.874;25.320;2023-02-28T11:24:57;29.77;;;17.30;;
20114;SDS011;10218;42.874;25.320;2023-02-28T11:35:59;24.13;;;15.27;;
20114;SDS011;10218;42.874;25.320;2023-02-28T11:38:30;25.83;;;15.60;;
20114;SDS011;10218;42.874;25.320;2023-02-28T12:11:50;22.70;;;12.73;;
20114;SDS011;10218;42.874;25.320;2023-02-28T12:25:59;19.63;;;11.50;;
20114;SDS011;10218;42.874;25.320;2023-02-28T12:28:59;20.60;;;12.77;;
20114;SDS011;10218;42.874;25.320;2023-02-28T12:31:33;20.57;;;12.27;;
20114;SDS011;10218;42.874;25.320;2023-02-28T12:34:12;19.03;;;12.80;;
20114;SDS011;10218;42.874;25.320;2023-02-28T12:36:44;21.27;;;11.70;;
20114;SDS011;10218;42.874;25.320;2023-02-28T12:39:26;21.93;;;12.20;;
20114;SDS011;10218;42.874;25.320;2023-02-28T12:42:17;15.70;;;11.07;;
20114;SDS011;10218;42.874;25.320;2023-02-28T12:44:52;16.97;;;11.37;;
20114;SDS011;10218;42.874;25.320;2023-02-28T12:47:23;17.93;;;10.57;;
20114;SDS011;10218;42.874;25.320;2023-02-28T12:49:55;18.03;;;11.73;;
20114;SDS011;10218;42.874;25.320;2023-02-28T12:55:19;17.53;;;10.70;;
20114;SDS011;10218;42.874;25.320;2023-02-28T12:58:10;19.40;;;10.73;;
20114;SDS011;10218;42.874;25.320;2023-02-28T13:00:48;16.87;;;11.07;;
20114;SDS011;10218;42.874;25.320;2023-02-28T13:08:56;18.07;;;11.57;;
20114;SDS011;10218;42.874;25.320;2023-02-28T13:12:10;19.27;;;11.73;;
20114;SDS011;10218;42.874;25.320;2023-02-28T13:17:03;19.77;;;11.67;;
20114;SDS011;10218;42.874;25.320;2023-02-28T13:19:58;19.20;;;11.80;;
20114;SDS011;10218;42.874;25.320;2023-02-28T13:24:53;16.47;;;10.03;;
20114;SDS011;10218;42.874;25.320;2023-02-28T13:29:52;19.83;;;11.33;;
20114;SDS011;10218;42.874;25.320;2023-02-28T13:40:06;21.00;;;12.73;;
20114;SDS011;10218;42.874;25.320;2023-02-28T13:43:06;18.63;;;10.93;;
20114;SDS011;10218;42.874;25.320;2023-02-28T13:45:35;22.77;;;13.23;;
20114;SDS011;10218;42.874;25.320;2023-02-28T13:48:15;21.03;;;10.87;;
20114;SDS011;10218;42.874;25.320;2023-02-28T13:50:44;24.77;;;14.13;;
20114;SDS011;10218;42.874;25.320;2023-02-28T14:08:58;36.00;;;23.53;;
20114;SDS011;10218;42.874;25.320;2023-02-28T14:11:35;33.43;;;19.73;;
20114;SDS011;10218;42.874;25.320;2023-02-28T14:14:05;37.13;;;20.07;;
20114;SDS011;10218;42.874;25.320;2023-02-28T14:19:35;29.50;;;17.73;;
20114;SDS011;10218;42.874;25.320;2023-02-28T14:38:28;44.30;;;26.07;;
20114;SDS011;10218;42.874;25.320;2023-02-28T14:41:00;32.80;;;20.60;;
20114;SDS011;10218;42.874;25.320;2023-02-28T14:43:47;31.70;;;18.50;;
20114;SDS011;10218;42.874;25.320;2023-02-28T14:46:22;23.10;;;14.07;;
20114;SDS011;10218;42.874;25.320;2023-02-28T14:48:54;25.63;;;15.20;;
20114;SDS011;10218;42.874;25.320;2023-02-28T14:51:22;23.47;;;13.63;;
20114;SDS011;10218;42.874;25.320;2023-02-28T14:53:57;22.87;;;12.80;;
20114;SDS011;10218;42.874;25.320;2023-02-28T14:56:33;16.93;;;10.73;;
20114;SDS011;10218;42.874;25.320;2023-02-28T14:59:04;13.43;;;8.33;;
20114;SDS011;10218;42.874;25.320;2023-02-28T15:01:32;14.63;;;8.77;;
20114;SDS011;10218;42.874;25.320;2023-02-28T15:04:01;17.17;;;10.03;;
20114;SDS011;10218;42.874;25.320;2023-02-28T15:06:30;16.30;;;10.37;;
20114;SDS011;10218;42.874;25.320;2023-02-28T15:09:06;16.03;;;10.70;;
20114;SDS011;10218;42.874;25.320;2023-02-28T15:11:40;18.17;;;12.17;;
20114;SDS011;10218;42.874;25.320;2023-02-28T15:14:13;17.10;;;11.50;;
20114;SDS011;10218;42.874;25.320;2023-02-28T15:16:43;33.83;;;20.53;;
20114;SDS011;10218;42.874;25.320;2023-02-28T15:19:14;26.53;;;16.13;;
20114;SDS011;10218;42.874;25.320;2023-02-28T15:22:03;14.67;;;9.60;;
20114;SDS011;10218;42.874;25.320;2023-02-28T15:24:38;15.87;;;9.60;;
20114;SDS011;10218;42.874;25.320;2023-02-28T15:27:19;14.07;;;9.40;;
20114;SDS011;10218;42.874;25.320;2023-02-28T15:29:51;11.17;;;7.40;;
20114;SDS011;10218;42.874;25.320;2023-02-28T15:32:27;13.90;;;8.33;;
20114;SDS011;10218;42.874;25.320;2023-02-28T15:34:56;9.37;;;6.60;;
20114;SDS011;10218;42.874;25.320;2023-02-28T15:40:51;16.17;;;10.50;;
20114;SDS011;10218;42.874;25.320;2023-02-28T15:42:58;16.63;;;10.57;;
20114;SDS011;10218;42.874;25.320;2023-02-28T15:45:33;15.90;;;9.60;;
20114;SDS011;10218;42.874;25.320;2023-02-28T15:48:05;14.90;;;9.00;;
20114;SDS011;10218;42.874;25.320;2023-02-28T15:50:49;14.20;;;10.07;;
20114;SDS011;10218;42.874;25.320;2023-02-28T15:53:22;18.23;;;10.27;;
20114;SDS011;10218;42.874;25.320;2023-02-28T15:56:04;17.70;;;11.63;;
20114;SDS011;10218;42.874;25.320;2023-02-28T15:58:41;19.67;;;11.90;;
20114;SDS011;10218;42.874;25.320;2023-02-28T16:01:25;27.17;;;16.70;;
20114;SDS011;10218;42.874;25.320;2023-02-28T16:03:57;32.00;;;17.27;;
20114;SDS011;10218;42.874;25.320;2023-02-28T16:06:37;23.93;;;15.13;;
20114;SDS011;10218;42.874;25.320;2023-02-28T16:09:10;20.30;;;12.23;;
20114;SDS011;10218;42.874;25.320;2023-02-28T16:11:43;21.23;;;14.00;;
20114;SDS011;10218;42.874;25.320;2023-02-28T16:14:13;26.83;;;16.27;;
20114;SDS011;10218;42.874;25.320;2023-02-28T16:16:48;25.27;;;16.33;;
20114;SDS011;10218;42.874;25.320;2023-02-28T16:19:18;19.27;;;11.50;;
20114;SDS011;10218;42.874;25.320;2023-02-28T16:21:46;19.03;;;12.00;;
20114;SDS011;10218;42.874;25.320;2023-02-28T16:24:13;17.13;;;11.27;;
20114;SDS011;10218;42.874;25.320;2023-02-28T16:26:41;16.57;;;11.70;;
20114;SDS011;10218;42.874;25.320;2023-02-28T16:29:27;20.67;;;13.60;;
20114;SDS011;10218;42.874;25.320;2023-02-28T16:31:56;37.23;;;20.67;;
20114;SDS011;10218;42.874;25.320;2023-02-28T16:34:25;26.97;;;16.27;;
20114;SDS011;10218;42.874;25.320;2023-02-28T16:36:52;22.97;;;14.57;;
20114;SDS011;10218;42.874;25.320;2023-02-28T16:39:20;29.20;;;19.17;;
20114;SDS011;10218;42.874;25.320;2023-02-28T16:41:47;24.40;;;15.57;;
20114;SDS011;10218;42.874;25.320;2023-02-28T16:44:34;32.40;;;23.90;;
20114;SDS011;10218;42.874;25.320;2023-02-28T16:47:03;23.87;;;15.97;;
20114;SDS011;10218;42.874;25.320;2023-02-28T16:49:30;22.03;;;13.10;;
20114;SDS011;10218;42.874;25.320;2023-02-28T16:51:58;20.87;;;13.27;;
20114;SDS011;10218;42.874;25.320;2023-02-28T16:54:25;22.23;;;14.77;;
20114;SDS011;10218;42.874;25.320;2023-02-28T16:56:53;15.07;;;9.97;;
20114;SDS011;10218;42.874;25.320;2023-02-28T16:59:23;15.77;;;10.63;;
20114;SDS011;10218;42.874;25.320;2023-02-28T17:01:51;14.73;;;9.93;;
20114;SDS011;10218;42.874;25.320;2023-02-28T17:04:19;15.40;;;10.33;;
20114;SDS011;10218;42.874;25.320;2023-02-28T17:06:46;18.07;;;11.63;;
20114;SDS011;10218;42.874;25.320;2023-02-28T17:09:15;15.87;;;10.80;;
20114;SDS011;10218;42.874;25.320;2023-02-28T17:11:44;21.57;;;13.60;;
20114;SDS011;10218;42.874;25.320;2023-02-28T17:14:11;21.53;;;14.20;;
20114;SDS011;10218;42.874;25.320;2023-02-28T17:16:38;19.30;;;13.63;;
20114;SDS011;10218;42.874;25.320;2023-02-28T17:19:12;19.83;;;12.87;;